createdAt,value
2017-02-11T00:00:07.495Z,958.21
2017-02-11T00:01:08.082Z,958.22
2017-02-11T00:02:07.884Z,958.23
2017-02-11T00:03:07.366Z,958.24
2017-02-11T00:04:07.957Z,958.22
2017-02-11T00:05:07.453Z,958.26
2017-02-11T00:06:08.019Z,958.21
2017-02-11T00:07:07.530Z,958.19
2017-02-11T00:08:08.022Z,958.14
2017-02-11T00:09:07.770Z,958.15
2017-02-11T00:10:08.319Z,958.12
2017-02-11T00:11:07.895Z,958.17
2017-02-11T00:12:07.470Z,958.15
2017-02-11T00:13:07.989Z,958.16
2017-02-11T00:14:07.553Z,958.18
2017-02-11T00:15:08.098Z,958.18
2017-02-11T00:16:07.529Z,958.13
2017-02-11T00:17:08.176Z,958.14
2017-02-11T00:18:07.704Z,958.19
2017-02-11T00:19:08.325Z,958.16
2017-02-11T00:20:07.950Z,958.17
2017-02-11T00:21:07.796Z,958.15
2017-02-11T00:22:07.295Z,958.15
2017-02-11T00:23:07.792Z,958.19
2017-02-11T00:24:07.534Z,958.20
2017-02-11T00:25:08.095Z,958.23
2017-02-11T00:26:07.656Z,958.20
2017-02-11T00:27:08.143Z,958.22
2017-02-11T00:28:07.877Z,958.26
2017-02-11T00:29:17.793Z,958.24
2017-02-11T00:30:07.342Z,958.30
2017-02-11T00:31:07.913Z,958.22
2017-02-11T00:32:07.444Z,958.22
2017-02-11T00:33:09.022Z,958.21
2017-02-11T00:34:07.473Z,958.19
2017-02-11T00:35:07.950Z,958.18
2017-02-11T00:36:07.384Z,958.17
2017-02-11T00:37:07.908Z,958.16
2017-02-11T00:38:07.412Z,958.16
2017-02-11T00:39:08.975Z,958.19
2017-02-11T00:40:07.780Z,958.18
2017-02-11T00:41:08.318Z,958.20
2017-02-11T00:42:07.836Z,958.18
2017-02-11T00:43:07.297Z,958.15
2017-02-11T00:44:07.761Z,958.11
2017-02-11T00:45:07.520Z,958.15
2017-02-11T00:46:08.040Z,958.15
2017-02-11T00:47:07.587Z,958.12
2017-02-11T00:48:08.165Z,958.20
2017-02-11T00:49:07.714Z,958.14
2017-02-11T00:50:08.269Z,958.20
2017-02-11T00:51:07.859Z,958.18
2017-02-11T00:52:07.624Z,958.24
2017-02-11T00:53:08.251Z,958.31
2017-02-11T00:54:07.785Z,958.29
2017-02-11T00:55:07.290Z,958.24
2017-02-11T00:56:07.854Z,958.18
2017-02-11T00:57:07.294Z,958.23
2017-02-11T00:58:07.973Z,958.19
2017-02-11T01:00:01.953Z,958.17
2017-02-11T01:00:08.125Z,958.24
2017-02-11T01:01:07.679Z,958.19
2017-02-11T01:02:08.211Z,958.19
2017-02-11T01:03:07.893Z,958.15
2017-02-11T01:04:07.401Z,958.14
2017-02-11T01:05:07.907Z,958.15
2017-02-11T01:06:07.363Z,958.14
2017-02-11T01:07:07.843Z,958.11
2017-02-11T01:08:07.420Z,958.10
2017-02-11T01:09:07.920Z,958.09
2017-02-11T01:10:07.491Z,958.07
2017-02-11T01:11:08.062Z,958.04
2017-02-11T01:12:07.512Z,958.08
2017-02-11T01:13:08.075Z,958.03
2017-02-11T01:14:07.926Z,958.04
2017-02-11T01:15:07.530Z,957.97
2017-02-11T01:16:08.273Z,957.97
2017-02-11T01:17:07.932Z,957.95
2017-02-11T01:18:08.047Z,957.97
2017-02-11T01:19:07.588Z,957.97
2017-02-11T01:20:08.146Z,957.97
2017-02-11T01:21:07.594Z,957.95
2017-02-11T01:22:08.366Z,957.91
2017-02-11T01:23:07.849Z,957.92
2017-02-11T01:24:07.406Z,957.87
2017-02-11T01:25:07.928Z,957.78
2017-02-11T01:26:07.925Z,957.75
2017-02-11T01:27:07.470Z,957.75
2017-02-11T01:28:08.126Z,957.78
2017-02-11T01:29:07.596Z,957.77
2017-02-11T01:30:18.283Z,957.81
2017-02-11T01:31:07.741Z,957.83
2017-02-11T01:32:08.263Z,957.84
2017-02-11T01:33:08.054Z,957.88
2017-02-11T01:34:08.022Z,957.81
2017-02-11T01:35:08.013Z,957.80
2017-02-11T01:36:08.043Z,957.83
2017-02-11T01:37:07.621Z,957.86
2017-02-11T01:38:07.259Z,957.84
2017-02-11T01:39:07.856Z,957.80
2017-02-11T01:40:07.381Z,957.80
2017-02-11T01:41:07.900Z,957.80
2017-02-11T01:42:08.023Z,957.73
2017-02-11T01:43:07.589Z,957.75
2017-02-11T01:44:08.200Z,957.70
2017-02-11T01:45:07.639Z,957.71
2017-02-11T01:46:07.849Z,957.72
2017-02-11T01:47:07.581Z,957.73
2017-02-11T01:48:08.098Z,957.75
2017-02-11T01:49:07.630Z,957.72
2017-02-11T01:50:08.272Z,957.71
2017-02-11T01:51:07.937Z,957.69
2017-02-11T01:52:07.203Z,957.67
2017-02-11T01:53:07.638Z,957.65
2017-02-11T01:54:07.891Z,957.66
2017-02-11T01:55:08.466Z,957.65
2017-02-11T01:56:07.935Z,957.63
2017-02-11T01:57:08.283Z,957.61
2017-02-11T01:58:08.054Z,957.63
2017-02-11T01:59:07.552Z,957.58
2017-02-11T02:00:08.110Z,957.58
2017-02-11T02:01:07.570Z,957.64
2017-02-11T02:02:08.159Z,957.60
2017-02-11T02:03:07.620Z,957.62
2017-02-11T02:04:08.136Z,957.64
2017-02-11T02:05:07.784Z,957.67
2017-02-11T02:06:07.330Z,957.69
2017-02-11T02:07:07.747Z,957.72
2017-02-11T02:08:07.442Z,957.75
2017-02-11T02:09:07.937Z,957.77
2017-02-11T02:10:08.002Z,957.78
2017-02-11T02:11:07.659Z,957.77
2017-02-11T02:12:08.163Z,957.79
2017-02-11T02:13:07.704Z,957.75
2017-02-11T02:14:08.195Z,957.72
2017-02-11T02:15:07.337Z,957.77
2017-02-11T02:16:07.788Z,957.75
2017-02-11T02:17:07.814Z,957.68
2017-02-11T02:18:07.423Z,957.72
2017-02-11T02:19:08.140Z,957.66
2017-02-11T02:20:07.709Z,957.66
2017-02-11T02:21:08.224Z,957.68
2017-02-11T02:22:07.783Z,957.70
2017-02-11T02:23:07.326Z,957.74
2017-02-11T02:24:07.917Z,957.71
2017-02-11T02:25:07.489Z,957.71
2017-02-11T02:26:08.058Z,957.71
2017-02-11T02:27:07.898Z,957.70
2017-02-11T02:28:07.796Z,957.69
2017-02-11T02:29:07.378Z,957.73
2017-02-11T02:30:07.709Z,957.69
2017-02-11T02:31:08.275Z,957.67
2017-02-11T02:32:07.848Z,957.70
2017-02-11T02:33:07.553Z,957.62
2017-02-11T02:34:08.134Z,957.64
2017-02-11T02:35:07.448Z,957.70
2017-02-11T02:36:07.993Z,957.73
2017-02-11T02:37:07.504Z,957.69
2017-02-11T02:38:08.117Z,957.72
2017-02-11T02:39:08.124Z,957.74
2017-02-11T02:40:07.725Z,957.71
2017-02-11T02:41:08.233Z,957.69
2017-02-11T02:42:07.715Z,957.70
2017-02-11T02:43:08.271Z,957.72
2017-02-11T02:44:07.960Z,957.70
2017-02-11T02:45:07.636Z,957.70
2017-02-11T02:46:08.186Z,957.71
2017-02-11T02:47:07.998Z,957.69
2017-02-11T02:48:07.618Z,957.73
2017-02-11T02:49:08.126Z,957.73
2017-02-11T02:50:07.807Z,957.70
2017-02-11T02:51:07.457Z,957.70
2017-02-11T02:52:08.906Z,957.67
2017-02-11T02:53:07.927Z,957.68
2017-02-11T02:54:07.469Z,957.69
2017-02-11T02:55:08.042Z,957.70
2017-02-11T02:56:07.623Z,957.73
2017-02-11T02:57:08.531Z,957.67
2017-02-11T02:58:08.203Z,957.70
2017-02-11T02:59:07.902Z,957.70
2017-02-11T03:00:07.806Z,957.71
2017-02-11T03:01:07.356Z,957.69
2017-02-11T03:02:07.941Z,957.69
2017-02-11T03:03:07.445Z,957.71
2017-02-11T03:04:07.949Z,957.68
2017-02-11T03:05:07.722Z,957.66
2017-02-11T03:06:08.512Z,957.69
2017-02-11T03:07:08.125Z,957.73
2017-02-11T03:08:07.947Z,957.72
2017-02-11T03:09:07.719Z,957.71
2017-02-11T03:10:08.508Z,957.66
2017-02-11T03:11:08.041Z,957.68
2017-02-11T03:12:07.514Z,957.64
2017-02-11T03:13:08.102Z,957.66
2017-02-11T03:14:07.861Z,957.65
2017-02-11T03:15:07.353Z,957.64
2017-02-11T03:16:07.863Z,957.69
2017-02-11T03:17:07.569Z,957.66
2017-02-11T03:19:07.614Z,957.69
2017-02-11T03:19:11.694Z,957.67
2017-02-11T03:20:08.264Z,957.66
2017-02-11T03:21:08.106Z,957.65
2017-02-11T03:22:07.609Z,957.64
2017-02-11T03:23:08.193Z,957.68
2017-02-11T03:24:07.685Z,957.72
2017-02-11T03:25:08.205Z,957.72
2017-02-11T03:26:07.743Z,957.72
2017-02-11T03:27:07.235Z,957.69
2017-02-11T03:28:07.946Z,957.72
2017-02-11T03:29:08.671Z,957.72
2017-02-11T03:30:08.603Z,957.69
2017-02-11T03:31:08.234Z,957.77
2017-02-11T03:32:07.835Z,957.70
2017-02-11T03:33:07.326Z,957.74
2017-02-11T03:34:07.830Z,957.75
2017-02-11T03:35:07.344Z,957.72
2017-02-11T03:36:07.894Z,957.68
2017-02-11T03:37:07.467Z,957.68
2017-02-11T03:38:08.033Z,957.68
2017-02-11T03:39:07.586Z,957.69
2017-02-11T03:40:08.164Z,957.72
2017-02-11T03:41:07.790Z,957.68
2017-02-11T03:42:07.286Z,957.68
2017-02-11T03:43:08.346Z,957.72
2017-02-11T03:44:07.951Z,957.69
2017-02-11T03:45:07.522Z,957.69
2017-02-11T03:46:07.939Z,957.72
2017-02-11T03:47:07.734Z,957.75
2017-02-11T03:48:08.226Z,957.76
2017-02-11T03:49:07.763Z,957.77
2017-02-11T03:50:07.272Z,957.77
2017-02-11T03:51:08.068Z,957.76
2017-02-11T03:52:07.631Z,957.74
2017-02-11T03:53:08.311Z,957.78
2017-02-11T03:54:07.804Z,957.78
2017-02-11T03:55:07.254Z,957.80
2017-02-11T03:56:07.869Z,957.81
2017-02-11T03:57:07.477Z,957.78
2017-02-11T03:58:08.213Z,957.85
2017-02-11T03:59:07.738Z,957.88
2017-02-11T04:00:08.201Z,957.85
2017-02-11T04:01:07.775Z,957.87
2017-02-11T04:02:07.334Z,957.87
2017-02-11T04:03:07.884Z,957.86
2017-02-11T04:04:07.375Z,957.83
2017-02-11T04:05:08.002Z,957.83
2017-02-11T04:06:07.541Z,957.82
2017-02-11T04:07:08.042Z,957.80
2017-02-11T04:08:07.546Z,957.81
2017-02-11T04:09:08.106Z,957.80
2017-02-11T04:10:07.635Z,957.81
2017-02-11T04:11:08.215Z,957.84
2017-02-11T04:12:07.643Z,957.84
2017-02-11T04:13:08.447Z,957.79
2017-02-11T04:14:08.077Z,957.79
2017-02-11T04:15:07.956Z,957.84
2017-02-11T04:16:07.743Z,957.83
2017-02-11T04:17:08.314Z,957.89
2017-02-11T04:18:08.131Z,957.84
2017-02-11T04:19:08.152Z,957.89
2017-02-11T04:20:07.761Z,957.89
2017-02-11T04:21:07.311Z,957.91
2017-02-11T04:22:07.792Z,957.89
2017-02-11T04:23:07.273Z,957.86
2017-02-11T04:24:07.924Z,957.91
2017-02-11T04:25:07.543Z,957.93
2017-02-11T04:26:08.142Z,957.88
2017-02-11T04:27:07.722Z,957.91
2017-02-11T04:28:08.356Z,957.95
2017-02-11T04:29:07.925Z,957.91
2017-02-11T04:30:07.441Z,957.93
2017-02-11T04:31:07.954Z,957.89
2017-02-11T04:32:07.536Z,957.89
2017-02-11T04:33:08.118Z,957.89
2017-02-11T04:34:07.969Z,957.89
2017-02-11T04:35:07.582Z,957.88
2017-02-11T04:36:08.320Z,957.88
2017-02-11T04:37:07.740Z,957.91
2017-02-11T04:38:08.282Z,957.94
2017-02-11T04:39:07.739Z,957.92
2017-02-11T04:40:08.365Z,957.94
2017-02-11T04:41:07.998Z,957.94
2017-02-11T04:42:07.508Z,957.94
2017-02-11T04:43:08.104Z,957.96
2017-02-11T04:44:07.618Z,957.97
2017-02-11T04:45:08.230Z,957.98
2017-02-11T04:46:07.833Z,958.00
2017-02-11T04:47:07.312Z,958.01
2017-02-11T04:48:07.843Z,957.97
2017-02-11T04:49:07.327Z,957.97
2017-02-11T04:50:07.926Z,957.95
2017-02-11T04:51:07.477Z,957.93
2017-02-11T04:52:08.053Z,957.92
2017-02-11T04:53:07.557Z,957.95
2017-02-11T04:54:08.111Z,957.96
2017-02-11T04:55:07.983Z,957.93
2017-02-11T04:56:07.576Z,957.98
2017-02-11T04:57:08.256Z,957.94
2017-02-11T04:58:07.932Z,957.97
2017-02-11T04:59:07.410Z,957.95
2017-02-11T05:00:07.953Z,957.91
2017-02-11T05:01:07.529Z,957.99
2017-02-11T05:02:08.130Z,957.98
2017-02-11T05:03:07.646Z,957.99
2017-02-11T05:04:08.417Z,958.02
2017-02-11T05:05:07.973Z,957.97
2017-02-11T05:06:08.130Z,958.03
2017-02-11T05:07:07.937Z,958.01
2017-02-11T05:08:07.371Z,958.03
2017-02-11T05:10:07.476Z,958.00
2017-02-11T05:11:08.033Z,958.06
2017-02-11T05:12:07.523Z,958.03
2017-02-11T05:13:08.039Z,958.05
2017-02-11T05:14:07.538Z,958.06
2017-02-11T05:15:08.164Z,958.04
2017-02-11T05:16:07.608Z,958.12
2017-02-11T05:17:07.881Z,958.05
2017-02-11T05:18:07.453Z,958.11
2017-02-11T05:19:08.010Z,958.09
2017-02-11T05:20:07.485Z,958.10
2017-02-11T05:21:08.079Z,958.05
2017-02-11T05:22:07.556Z,958.10
2017-02-11T05:23:08.146Z,958.08
2017-02-11T05:24:07.722Z,958.10
2017-02-11T05:25:11.033Z,958.10
2017-02-11T05:26:07.834Z,958.09
2017-02-11T05:27:07.591Z,958.11
2017-02-11T05:28:08.248Z,958.10
2017-02-11T05:29:07.825Z,958.15
2017-02-11T05:30:07.302Z,958.13
2017-02-11T05:31:07.896Z,958.10
2017-02-11T05:32:07.419Z,958.10
2017-02-11T05:33:08.065Z,958.10
2017-02-11T05:34:07.598Z,958.07
2017-02-11T05:35:27.819Z,958.11
2017-02-11T05:36:07.652Z,958.05
2017-02-11T05:37:08.240Z,958.02
2017-02-11T05:38:08.000Z,958.06
2017-02-11T05:39:07.679Z,958.05
2017-02-11T05:40:08.254Z,958.01
2017-02-11T05:41:08.015Z,958.04
2017-02-11T05:42:07.496Z,958.00
2017-02-11T05:43:07.950Z,958.02
2017-02-11T05:44:07.957Z,958.02
2017-02-11T05:45:07.552Z,958.01
2017-02-11T05:46:08.161Z,958.04
2017-02-11T05:47:07.724Z,957.99
2017-02-11T05:48:08.588Z,958.00
2017-02-11T05:49:08.263Z,958.02
2017-02-11T05:50:07.969Z,958.01
2017-02-11T05:51:07.535Z,958.03
2017-02-11T05:52:08.123Z,958.02
2017-02-11T05:53:07.652Z,957.98
2017-02-11T05:54:08.259Z,958.01
2017-02-11T05:55:07.809Z,958.02
2017-02-11T05:56:07.325Z,958.01
2017-02-11T05:57:07.828Z,958.06
2017-02-11T05:58:07.512Z,958.03
2017-02-11T05:59:08.016Z,958.10
2017-02-11T06:00:27.351Z,958.08
2017-02-11T06:01:07.975Z,958.10
2017-02-11T06:02:07.472Z,958.11
2017-02-11T06:03:08.069Z,958.15
2017-02-11T06:04:07.676Z,958.16
2017-02-11T06:05:08.287Z,958.18
2017-02-11T06:06:07.878Z,958.18
2017-02-11T06:07:07.399Z,958.17
2017-02-11T06:08:07.925Z,958.17
2017-02-11T06:09:07.736Z,958.18
2017-02-11T06:10:08.446Z,958.13
2017-02-11T06:11:08.020Z,958.14
2017-02-11T06:12:07.590Z,958.12
2017-02-11T06:13:08.168Z,958.13
2017-02-11T06:14:07.691Z,958.19
2017-02-11T06:15:08.310Z,958.16
2017-02-11T06:16:07.806Z,958.19
2017-02-11T06:17:07.357Z,958.20
2017-02-11T06:18:08.230Z,958.20
2017-02-11T06:19:07.775Z,958.21
2017-02-11T06:20:07.562Z,958.19
2017-02-11T06:21:08.198Z,958.17
2017-02-11T06:22:07.819Z,958.18
2017-02-11T06:23:07.315Z,958.18
2017-02-11T06:24:07.946Z,958.18
2017-02-11T06:25:07.806Z,958.18
2017-02-11T06:26:07.463Z,958.20
2017-02-11T06:27:27.560Z,958.17
2017-02-11T06:28:08.211Z,958.15
2017-02-11T06:29:07.716Z,958.20
2017-02-11T06:30:08.658Z,958.24
2017-02-11T06:31:08.192Z,958.24
2017-02-11T06:32:07.788Z,958.17
2017-02-11T06:33:07.417Z,958.19
2017-02-11T06:34:07.979Z,958.20
2017-02-11T06:35:07.766Z,958.16
2017-02-11T06:36:08.385Z,958.15
2017-02-11T06:37:07.970Z,958.19
2017-02-11T06:38:07.489Z,958.19
2017-02-11T06:39:08.074Z,958.19
2017-02-11T06:40:07.543Z,958.18
2017-02-11T06:41:08.220Z,958.18
2017-02-11T06:42:07.696Z,958.20
2017-02-11T06:43:08.238Z,958.19
2017-02-11T06:44:08.169Z,958.20
2017-02-11T06:45:07.630Z,958.24
2017-02-11T06:46:08.282Z,958.21
2017-02-11T06:47:07.863Z,958.24
2017-02-11T06:48:07.523Z,958.22
2017-02-11T06:49:08.037Z,958.21
2017-02-11T06:50:07.482Z,958.20
2017-02-11T06:51:07.989Z,958.23
2017-02-11T06:52:07.609Z,958.25
2017-02-11T06:53:08.328Z,958.26
2017-02-11T06:54:07.885Z,958.30
2017-02-11T06:55:07.340Z,958.32
2017-02-11T06:56:07.871Z,958.35
2017-02-11T06:57:07.343Z,958.37
2017-02-11T06:58:08.024Z,958.38
2017-02-11T06:59:18.009Z,958.38
2017-02-11T07:00:07.700Z,958.37
2017-02-11T07:01:08.257Z,958.43
2017-02-11T07:02:07.724Z,958.45
2017-02-11T07:03:08.282Z,958.40
2017-02-11T07:04:07.904Z,958.45
2017-02-11T07:05:07.483Z,958.45
2017-02-11T07:06:08.035Z,958.48
2017-02-11T07:07:07.613Z,958.43
2017-02-11T07:08:08.109Z,958.46
2017-02-11T07:09:07.552Z,958.43
2017-02-11T07:10:08.009Z,958.41
2017-02-11T07:11:07.562Z,958.47
2017-02-11T07:12:08.091Z,958.47
2017-02-11T07:13:07.692Z,958.44
2017-02-11T07:14:08.254Z,958.48
2017-02-11T07:15:07.818Z,958.49
2017-02-11T07:16:07.283Z,958.50
2017-02-11T07:17:08.003Z,958.51
2017-02-11T07:18:07.503Z,958.54
2017-02-11T07:19:08.123Z,958.50
2017-02-11T07:20:07.770Z,958.46
2017-02-11T07:21:07.331Z,958.53
2017-02-11T07:22:07.892Z,958.51
2017-02-11T07:23:07.414Z,958.52
2017-02-11T07:24:08.260Z,958.47
2017-02-11T07:25:07.880Z,958.48
2017-02-11T07:26:07.472Z,958.53
2017-02-11T07:27:08.107Z,958.47
2017-02-11T07:28:07.844Z,958.51
2017-02-11T07:29:07.410Z,958.50
2017-02-11T07:30:07.988Z,958.49
2017-02-11T07:31:07.616Z,958.50
2017-02-11T07:32:08.173Z,958.49
2017-02-11T07:33:07.810Z,958.49
2017-02-11T07:34:07.279Z,958.49
2017-02-11T07:35:07.920Z,958.48
2017-02-11T07:36:07.414Z,958.54
2017-02-11T07:37:08.334Z,958.55
2017-02-11T07:38:08.036Z,958.54
2017-02-11T07:39:07.542Z,958.54
2017-02-11T07:40:08.092Z,958.57
2017-02-11T07:41:07.628Z,958.55
2017-02-11T07:42:08.134Z,958.54
2017-02-11T07:43:07.617Z,958.58
2017-02-11T07:44:08.071Z,958.56
2017-02-11T07:45:07.575Z,958.55
2017-02-11T07:46:08.069Z,958.56
2017-02-11T07:47:07.695Z,958.53
2017-02-11T07:48:08.582Z,958.51
2017-02-11T07:49:08.130Z,958.51
2017-02-11T07:50:07.710Z,958.46
2017-02-11T07:51:08.253Z,958.46
2017-02-11T07:52:07.852Z,958.52
2017-02-11T07:53:07.334Z,958.51
2017-02-11T07:54:07.904Z,958.53
2017-02-11T07:55:07.376Z,958.50
2017-02-11T07:56:07.842Z,958.54
2017-02-11T07:57:07.643Z,958.55
2017-02-11T07:58:08.391Z,958.53
2017-02-11T07:59:07.939Z,958.54
2017-02-11T08:00:07.466Z,958.57
2017-02-11T08:01:07.993Z,958.49
2017-02-11T08:02:07.596Z,958.50
2017-02-11T08:03:08.099Z,958.49
2017-02-11T08:04:07.660Z,958.51
2017-02-11T08:05:08.290Z,958.49
2017-02-11T08:06:07.728Z,958.47
2017-02-11T08:07:08.592Z,958.50
2017-02-11T08:08:08.212Z,958.49
2017-02-11T08:09:08.063Z,958.49
2017-02-11T08:10:07.515Z,958.50
2017-02-11T08:11:27.559Z,958.49
2017-02-11T08:12:08.115Z,958.50
2017-02-11T08:13:07.564Z,958.45
2017-02-11T08:14:08.224Z,958.45
2017-02-11T08:15:21.324Z,958.45
2017-02-11T08:16:07.747Z,958.41
2017-02-11T08:17:08.523Z,958.43
2017-02-11T08:18:08.171Z,958.44
2017-02-11T08:19:07.952Z,958.45
2017-02-11T08:20:07.564Z,958.42
2017-02-11T08:21:08.151Z,958.44
2017-02-11T08:22:07.693Z,958.42
2017-02-11T08:23:08.259Z,958.43
2017-02-11T08:24:07.777Z,958.43
2017-02-11T08:25:07.330Z,958.41
2017-02-11T08:26:07.895Z,958.40
2017-02-11T08:27:07.346Z,958.39
2017-02-11T08:28:08.003Z,958.43
2017-02-11T08:29:17.711Z,958.44
2017-02-11T08:30:08.246Z,958.45
2017-02-11T08:31:07.724Z,958.47
2017-02-11T08:32:08.184Z,958.40
2017-02-11T08:33:07.727Z,958.42
2017-02-11T08:34:08.283Z,958.39
2017-02-11T08:35:07.769Z,958.40
2017-02-11T08:36:08.225Z,958.40
2017-02-11T08:37:07.745Z,958.44
2017-02-11T08:38:08.318Z,958.38
2017-02-11T08:39:08.108Z,958.39
2017-02-11T08:40:07.682Z,958.42
2017-02-11T08:41:08.313Z,958.45
2017-02-11T08:42:07.929Z,958.42
2017-02-11T08:43:07.571Z,958.50
2017-02-11T08:44:08.049Z,958.49
2017-02-11T08:45:07.626Z,958.47
2017-02-11T08:46:08.196Z,958.51
2017-02-11T08:47:07.771Z,958.56
2017-02-11T08:48:08.340Z,958.58
2017-02-11T08:49:07.858Z,958.53
2017-02-11T08:50:07.357Z,958.52
2017-02-11T08:51:08.152Z,958.52
2017-02-11T08:52:07.682Z,958.52
2017-02-11T08:53:08.246Z,958.56
2017-02-11T08:54:07.849Z,958.52
2017-02-11T08:55:07.289Z,958.49
2017-02-11T08:56:07.888Z,958.48
2017-02-11T08:57:07.327Z,958.44
2017-02-11T08:58:07.949Z,958.49
2017-02-11T08:59:07.521Z,958.47
2017-02-11T09:00:08.049Z,958.44
2017-02-11T09:01:07.820Z,958.45
2017-02-11T09:02:07.451Z,958.49
2017-02-11T09:03:08.071Z,958.51
2017-02-11T09:04:07.651Z,958.50
2017-02-11T09:05:08.171Z,958.47
2017-02-11T09:06:07.629Z,958.46
2017-02-11T09:07:08.174Z,958.46
2017-02-11T09:08:07.719Z,958.45
2017-02-11T09:09:08.309Z,958.40
2017-02-11T09:10:07.944Z,958.39
2017-02-11T09:11:07.672Z,958.40
2017-02-11T09:12:08.181Z,958.36
2017-02-11T09:13:41.201Z,958.37
2017-02-11T09:14:07.665Z,958.35
2017-02-11T09:15:08.241Z,958.39
2017-02-11T09:16:07.770Z,958.38
2017-02-11T09:17:08.439Z,958.36
2017-02-11T09:18:07.901Z,958.33
2017-02-11T09:19:07.414Z,958.34
2017-02-11T09:20:08.181Z,958.34
2017-02-11T09:21:07.755Z,958.32
2017-02-11T09:22:08.262Z,958.33
2017-02-11T09:23:07.847Z,958.32
2017-02-11T09:24:07.398Z,958.33
2017-02-11T09:25:07.988Z,958.32
2017-02-11T09:26:07.641Z,958.34
2017-02-11T09:27:08.226Z,958.33
2017-02-11T09:28:07.943Z,958.34
2017-02-11T09:29:07.639Z,958.31
2017-02-11T09:30:08.430Z,958.29
2017-02-11T09:31:08.549Z,958.30
2017-02-11T09:32:08.131Z,958.26
2017-02-11T09:33:07.879Z,958.27
2017-02-11T09:34:07.367Z,958.24
2017-02-11T09:35:07.869Z,958.27
2017-02-11T09:36:07.408Z,958.27
2017-02-11T09:37:07.968Z,958.25
2017-02-11T09:38:07.421Z,958.24
2017-02-11T09:39:08.025Z,958.20
2017-02-11T09:40:07.535Z,958.26
2017-02-11T09:41:08.084Z,958.24
2017-02-11T09:42:07.861Z,958.21
2017-02-11T09:43:07.629Z,958.21
2017-02-11T09:44:08.159Z,958.20
2017-02-11T09:45:07.595Z,958.23
2017-02-11T09:46:08.191Z,958.22
2017-02-11T09:47:07.759Z,958.24
2017-02-11T09:48:08.305Z,958.21
2017-02-11T09:49:07.818Z,958.23
2017-02-11T09:50:07.425Z,958.24
2017-02-11T09:51:07.961Z,958.23
2017-02-11T09:52:07.788Z,958.23
2017-02-11T09:53:07.696Z,958.24
2017-02-11T09:54:08.493Z,958.23
2017-02-11T09:55:08.082Z,958.22
2017-02-11T09:56:07.907Z,958.24
2017-02-11T09:57:07.360Z,958.23
2017-02-11T09:58:07.980Z,958.25
2017-02-11T09:59:54.803Z,958.21
2017-02-11T10:00:07.237Z,958.24
2017-02-11T10:01:07.786Z,958.17
2017-02-11T10:02:07.288Z,958.23
2017-02-11T10:03:08.154Z,958.20
2017-02-11T10:04:07.978Z,958.23
2017-02-11T10:05:07.816Z,958.23
2017-02-11T10:06:07.258Z,958.12
2017-02-11T10:07:07.753Z,958.22
2017-02-11T10:08:08.313Z,958.21
2017-02-11T10:09:07.896Z,958.18
2017-02-11T10:10:07.498Z,958.17
2017-02-11T10:11:08.065Z,958.14
2017-02-11T10:12:07.522Z,958.18
2017-02-11T10:13:08.352Z,958.16
2017-02-11T10:14:08.274Z,958.10
2017-02-11T10:15:08.146Z,958.11
2017-02-11T10:16:07.689Z,958.08
2017-02-11T10:17:08.330Z,958.10
2017-02-11T10:18:07.829Z,958.06
2017-02-11T10:19:07.279Z,958.12
2017-02-11T10:20:07.889Z,958.15
2017-02-11T10:21:07.487Z,958.11
2017-02-11T10:22:08.014Z,958.12
2017-02-11T10:23:07.631Z,958.13
2017-02-11T10:24:08.103Z,958.09
2017-02-11T10:25:08.063Z,958.14
2017-02-11T10:26:07.846Z,958.10
2017-02-11T10:27:07.321Z,958.12
2017-02-11T10:28:08.047Z,958.12
2017-02-11T10:29:20.272Z,958.10
2017-02-11T10:30:07.788Z,958.10
2017-02-11T10:31:07.290Z,958.02
2017-02-11T10:32:07.727Z,958.05
2017-02-11T10:33:08.215Z,958.04
2017-02-11T10:34:07.715Z,958.00
2017-02-11T10:35:08.321Z,958.07
2017-02-11T10:36:07.816Z,958.03
2017-02-11T10:37:07.706Z,957.98
2017-02-11T10:38:08.240Z,958.00
2017-02-11T10:39:07.703Z,957.96
2017-02-11T10:40:08.124Z,957.93
2017-02-11T10:41:07.846Z,957.90
2017-02-11T10:42:07.329Z,957.87
2017-02-11T10:43:07.910Z,957.86
2017-02-11T10:44:07.388Z,957.85
2017-02-11T10:45:07.937Z,957.84
2017-02-11T10:46:07.469Z,957.84
2017-02-11T10:47:08.219Z,957.83
2017-02-11T10:48:07.751Z,957.83
2017-02-11T10:49:08.173Z,957.81
2017-02-11T10:50:07.289Z,957.81
2017-02-11T10:51:07.845Z,957.76
2017-02-11T10:52:07.269Z,957.73
2017-02-11T10:53:07.757Z,957.75
2017-02-11T10:54:08.312Z,957.74
2017-02-11T10:55:07.810Z,957.66
2017-02-11T10:56:07.402Z,957.73
2017-02-11T10:57:07.877Z,957.66
2017-02-11T10:58:07.502Z,957.69
2017-02-11T10:59:18.299Z,957.67
2017-02-11T11:00:07.893Z,957.69
2017-02-11T11:01:07.514Z,957.72
2017-02-11T11:02:08.101Z,957.69
2017-02-11T11:03:07.658Z,957.70
2017-02-11T11:04:08.160Z,957.65
2017-02-11T11:05:07.774Z,957.67
2017-02-11T11:06:07.254Z,957.70
2017-02-11T11:07:07.730Z,957.68
2017-02-11T11:08:08.310Z,957.73
2017-02-11T11:09:07.952Z,957.73
2017-02-11T11:10:07.568Z,957.68
2017-02-11T11:11:14.929Z,957.68
2017-02-11T11:12:08.143Z,957.66
2017-02-11T11:13:10.705Z,957.68
2017-02-11T11:14:08.212Z,957.69
2017-02-11T11:15:08.033Z,957.66
2017-02-11T11:16:07.577Z,957.68
2017-02-11T11:17:08.226Z,957.67
2017-02-11T11:18:08.073Z,957.73
2017-02-11T11:19:07.764Z,957.69
2017-02-11T11:20:08.256Z,957.66
2017-02-11T11:21:07.844Z,957.67
2017-02-11T11:22:07.475Z,957.69
2017-02-11T11:23:08.037Z,957.64
2017-02-11T11:24:07.525Z,957.63
2017-02-11T11:25:08.059Z,957.61
2017-02-11T11:26:09.186Z,957.60
2017-02-11T11:27:07.708Z,957.60
2017-02-11T11:28:08.376Z,957.57
2017-02-11T11:29:18.371Z,957.57
2017-02-11T11:30:08.179Z,957.55
2017-02-11T11:31:07.964Z,957.53
2017-02-11T11:32:07.493Z,957.52
2017-02-11T11:33:08.076Z,957.50
2017-02-11T11:34:07.668Z,957.47
2017-02-11T11:35:08.282Z,957.50
2017-02-11T11:36:07.857Z,957.52
2017-02-11T11:37:07.359Z,957.50
2017-02-11T11:38:07.877Z,957.47
2017-02-11T11:39:07.438Z,957.47
2017-02-11T11:40:07.960Z,957.42
2017-02-11T11:41:07.798Z,957.41
2017-02-11T11:42:07.278Z,957.43
2017-02-11T11:43:07.838Z,957.34
2017-02-11T11:44:07.321Z,957.34
2017-02-11T11:45:07.920Z,957.33
2017-02-11T11:46:07.459Z,957.32
2017-02-11T11:47:08.020Z,957.30
2017-02-11T11:48:07.515Z,957.31
2017-02-11T11:49:08.196Z,957.27
2017-02-11T11:50:07.700Z,957.28
2017-02-11T11:51:08.299Z,957.26
2017-02-11T11:52:07.952Z,957.26
2017-02-11T11:53:07.371Z,957.24
2017-02-11T11:54:08.067Z,957.23
2017-02-11T11:55:07.593Z,957.23
2017-02-11T11:56:08.186Z,957.25
2017-02-11T11:57:07.787Z,957.22
2017-02-11T11:58:07.440Z,957.20
2017-02-11T11:59:08.035Z,957.20
2017-02-11T12:00:07.542Z,957.18
2017-02-11T12:01:08.344Z,957.20
2017-02-11T12:02:08.177Z,957.20
2017-02-11T12:03:07.718Z,957.19
2017-02-11T12:04:08.271Z,957.18
2017-02-11T12:05:07.850Z,957.14
2017-02-11T12:06:07.490Z,957.13
2017-02-11T12:07:08.218Z,957.10
2017-02-11T12:08:07.757Z,957.12
2017-02-11T12:09:07.350Z,957.08
2017-02-11T12:10:07.865Z,957.10
2017-02-11T12:11:07.385Z,957.08
2017-02-11T12:12:08.180Z,957.08
2017-02-11T12:13:07.852Z,957.11
2017-02-11T12:14:07.328Z,957.01
2017-02-11T12:15:08.002Z,957.02
2017-02-11T12:16:07.625Z,956.98
2017-02-11T12:17:07.477Z,957.00
2017-02-11T12:18:08.006Z,957.00
2017-02-11T12:19:07.539Z,957.01
2017-02-11T12:20:08.112Z,957.00
2017-02-11T12:21:09.200Z,956.96
2017-02-11T12:22:07.800Z,956.98
2017-02-11T12:23:07.652Z,956.92
2017-02-11T12:24:18.909Z,956.91
2017-02-11T12:25:07.596Z,956.96
2017-02-11T12:26:08.062Z,956.94
2017-02-11T12:27:07.555Z,956.86
2017-02-11T12:28:08.219Z,956.92
2017-02-11T12:29:07.701Z,956.88